sensor_id;sensor_type;location;lat;lon;timestamp;pressure;altitude;pressure_sealevel;temperature;humidity
60465;BME280;46314;52.392;9.758;2022-10-30T00:00:42;101002.03;;;19.04;60.53
60465;BME280;46314;52.392;9.758;2022-10-30T00:03:11;101002.03;;;18.13;63.20
60465;BME280;46314;52.392;9.758;2022-10-30T00:05:40;101001.88;;;18.76;62.42
60465;BME280;46314;52.392;9.758;2022-10-30T00:08:07;101003.56;;;18.89;61.17
60465;BME280;46314;52.392;9.758;2022-10-30T00:10:35;101005.56;;;19.01;61.19
60465;BME280;46314;52.392;9.758;2022-10-30T00:13:01;100994.91;;;18.82;61.38
60465;BME280;46314;52.392;9.758;2022-10-30T00:15:27;100991.91;;;18.54;61.81
60465;BME280;46314;52.392;9.758;2022-10-30T00:17:54;100989.50;;;18.89;60.96
60465;BME280;46314;52.392;9.758;2022-10-30T00:20:22;100983.06;;;18.89;61.63
60465;BME280;46314;52.392;9.758;2022-10-30T00:22:49;100967.75;;;18.41;62.84
60465;BME280;46314;52.392;9.758;2022-10-30T00:25:15;100965.16;;;19.06;62.25
60465;BME280;46314;52.392;9.758;2022-10-30T00:27:41;100963.25;;;18.98;61.96
60465;BME280;46314;52.392;9.758;2022-10-30T00:30:09;100974.63;;;18.89;61.15
60465;BME280;46314;52.392;9.758;2022-10-30T00:32:36;100973.06;;;18.67;61.60
60465;BME280;46314;52.392;9.758;2022-10-30T00:35:03;100974.50;;;18.98;61.15
60465;BME280;46314;52.392;9.758;2022-10-30T00:37:31;100973.63;;;18.60;62.06
60465;BME280;46314;52.392;9.758;2022-10-30T00:39:57;100968.03;;;18.72;62.12
60465;BME280;46314;52.392;9.758;2022-10-30T00:42:28;100984.47;;;18.83;61.64
60465;BME280;46314;52.392;9.758;2022-10-30T00:44:55;100983.66;;;18.95;61.36
60465;BME280;46314;52.392;9.758;2022-10-30T00:47:25;100980.47;;;18.71;62.48
60465;BME280;46314;52.392;9.758;2022-10-30T00:49:56;100982.00;;;19.06;61.07
60465;BME280;46314;52.392;9.758;2022-10-30T00:52:27;100969.13;;;18.34;63.51
60465;BME280;46314;52.392;9.758;2022-10-30T00:54:58;100976.06;;;18.49;62.99
60465;BME280;46314;52.392;9.758;2022-10-30T00:57:27;100970.84;;;18.72;62.31
60465;BME280;46314;52.392;9.758;2022-10-30T00:59:53;100967.31;;;18.51;62.44
60465;BME280;46314;52.392;9.758;2022-10-30T01:02:21;100968.75;;;18.82;62.46
60465;BME280;46314;52.392;9.758;2022-10-30T01:04:49;100962.19;;;18.78;61.93
60465;BME280;46314;52.392;9.758;2022-10-30T01:07:17;100976.75;;;18.92;60.98
60465;BME280;46314;52.392;9.758;2022-10-30T01:09:45;100976.56;;;18.76;62.29
60465;BME280;46314;52.392;9.758;2022-10-30T01:12:13;100978.81;;;18.70;62.10
60465;BME280;46314;52.392;9.758;2022-10-30T01:14:42;100967.09;;;18.81;62.04
60465;BME280;46314;52.392;9.758;2022-10-30T01:17:21;100969.25;;;18.84;61.16
60465;BME280;46314;52.392;9.758;2022-10-30T01:19:59;100967.91;;;18.81;61.27
60465;BME280;46314;52.392;9.758;2022-10-30T01:22:40;100962.53;;;18.76;61.69
60465;BME280;46314;52.392;9.758;2022-10-30T01:25:17;100961.59;;;18.60;62.41
60465;BME280;46314;52.392;9.758;2022-10-30T01:27:57;100962.06;;;18.62;61.51
60465;BME280;46314;52.392;9.758;2022-10-30T01:30:42;100970.06;;;18.97;60.49
60465;BME280;46314;52.392;9.758;2022-10-30T01:33:24;100961.75;;;18.88;60.89
60465;BME280;46314;52.392;9.758;2022-10-30T01:36:00;100971.94;;;19.05;60.40
60465;BME280;46314;52.392;9.758;2022-10-30T01:38:35;100956.81;;;18.85;61.24
60465;BME280;46314;52.392;9.758;2022-10-30T01:41:04;100964.81;;;18.95;61.29
60465;BME280;46314;52.392;9.758;2022-10-30T01:43:32;100961.03;;;18.79;61.50
60465;BME280;46314;52.392;9.758;2022-10-30T01:46:27;100957.28;;;18.99;61.00
60465;BME280;46314;52.392;9.758;2022-10-30T01:49:18;100955.38;;;18.54;62.26
60465;BME280;46314;52.392;9.758;2022-10-30T01:51:57;100956.72;;;18.94;60.95
60465;BME280;46314;52.392;9.758;2022-10-30T01:54:34;100956.28;;;18.46;62.46
60465;BME280;46314;52.392;9.758;2022-10-30T01:57:07;100956.47;;;18.86;61.21
60465;BME280;46314;52.392;9.758;2022-10-30T01:59:43;100955.50;;;18.70;61.35
60465;BME280;46314;52.392;9.758;2022-10-30T02:02:12;100964.06;;;18.73;61.43
60465;BME280;46314;52.392;9.758;2022-10-30T02:04:39;100963.06;;;18.45;62.16
60465;BME280;46314;52.392;9.758;2022-10-30T02:07:06;100961.53;;;18.35;62.46
60465;BME280;46314;52.392;9.758;2022-10-30T02:09:33;100972.94;;;18.63;61.94
60465;BME280;46314;52.392;9.758;2022-10-30T02:12:00;100972.25;;;18.79;60.97
60465;BME280;46314;52.392;9.758;2022-10-30T02:14:30;100969.41;;;18.54;61.89
60465;BME280;46314;52.392;9.758;2022-10-30T02:17:03;100970.84;;;18.72;61.83
60465;BME280;46314;52.392;9.758;2022-10-30T02:19:31;100976.69;;;18.80;61.53
60465;BME280;46314;52.392;9.758;2022-10-30T02:21:59;100975.84;;;18.54;61.70
60465;BME280;46314;52.392;9.758;2022-10-30T02:24:27;100971.66;;;18.73;61.55
60465;BME280;46314;52.392;9.758;2022-10-30T02:26:53;100972.47;;;18.61;62.33
60465;BME280;46314;52.392;9.758;2022-10-30T02:29:20;100972.38;;;18.70;61.74
60465;BME280;46314;52.392;9.758;2022-10-30T02:31:46;100970.69;;;18.57;62.34
60465;BME280;46314;52.392;9.758;2022-10-30T02:34:12;100977.47;;;18.55;62.20
60465;BME280;46314;52.392;9.758;2022-10-30T02:36:39;100982.31;;;18.67;61.84
60465;BME280;46314;52.392;9.758;2022-10-30T02:39:07;100983.91;;;18.89;61.43
60465;BME280;46314;52.392;9.758;2022-10-30T02:41:34;100971.69;;;18.40;62.32
60465;BME280;46314;52.392;9.758;2022-10-30T02:44:00;100978.31;;;18.56;62.06
60465;BME280;46314;52.392;9.758;2022-10-30T02:46:27;100978.78;;;18.58;62.25
60465;BME280;46314;52.392;9.758;2022-10-30T02:48:53;100972.38;;;18.70;61.85
60465;BME280;46314;52.392;9.758;2022-10-30T02:51:20;100980.47;;;18.71;61.80
60465;BME280;46314;52.392;9.758;2022-10-30T02:53:46;100976.53;;;18.51;61.93
60465;BME280;46314;52.392;9.758;2022-10-30T02:56:14;100980.81;;;18.70;61.77
60465;BME280;46314;52.392;9.758;2022-10-30T02:58:41;100983.72;;;18.73;61.36
60465;BME280;46314;52.392;9.758;2022-10-30T03:01:09;100979.28;;;18.72;61.44
60465;BME280;46314;52.392;9.758;2022-10-30T03:03:37;100980.31;;;18.68;60.97
60465;BME280;46314;52.392;9.758;2022-10-30T03:06:05;100975.28;;;18.61;62.17
60465;BME280;46314;52.392;9.758;2022-10-30T03:08:33;100975.94;;;18.46;62.98
60465;BME280;46314;52.392;9.758;2022-10-30T03:11:00;100975.94;;;18.46;63.16
60465;BME280;46314;52.392;9.758;2022-10-30T03:13:30;100979.78;;;18.41;63.05
60465;BME280;46314;52.392;9.758;2022-10-30T03:16:00;100978.19;;;18.52;62.91
60465;BME280;46314;52.392;9.758;2022-10-30T03:18:27;100975.84;;;18.54;63.13
60465;BME280;46314;52.392;9.758;2022-10-30T03:20:57;100978.75;;;18.46;63.72
60465;BME280;46314;52.392;9.758;2022-10-30T03:23:23;100978.75;;;18.46;63.82
60465;BME280;46314;52.392;9.758;2022-10-30T03:25:53;100978.06;;;18.49;62.82
60465;BME280;46314;52.392;9.758;2022-10-30T03:28:21;100977.94;;;18.45;63.44
60465;BME280;46314;52.392;9.758;2022-10-30T03:30:49;100977.16;;;18.24;63.61
60465;BME280;46314;52.392;9.758;2022-10-30T03:33:16;100978.13;;;18.28;63.50
60465;BME280;46314;52.392;9.758;2022-10-30T03:35:43;100975.69;;;18.05;64.33
60465;BME280;46314;52.392;9.758;2022-10-30T03:38:10;100974.22;;;18.20;63.59
60465;BME280;46314;52.392;9.758;2022-10-30T03:40:36;100963.53;;;18.01;64.77
60465;BME280;46314;52.392;9.758;2022-10-30T03:43:03;100968.91;;;18.06;64.61
60465;BME280;46314;52.392;9.758;2022-10-30T03:45:30;100968.91;;;18.06;65.22
60465;BME280;46314;52.392;9.758;2022-10-30T03:47:58;100965.63;;;18.04;64.90
60465;BME280;46314;52.392;9.758;2022-10-30T03:50:26;100960.06;;;18.16;64.72
60465;BME280;46314;52.392;9.758;2022-10-30T03:52:53;100965.03;;;18.32;63.90
60465;BME280;46314;52.392;9.758;2022-10-30T03:55:19;100961.34;;;17.86;65.41
60465;BME280;46314;52.392;9.758;2022-10-30T03:57:46;100964.63;;;17.67;65.94
60465;BME280;46314;52.392;9.758;2022-10-30T04:00:13;100972.34;;;17.70;66.15
60465;BME280;46314;52.392;9.758;2022-10-30T04:02:43;100979.13;;;17.90;65.07
60465;BME280;46314;52.392;9.758;2022-10-30T04:05:11;100971.44;;;17.57;66.12
60465;BME280;46314;52.392;9.758;2022-10-30T04:07:38;100979.72;;;17.74;65.94
60465;BME280;46314;52.392;9.758;2022-10-30T04:10:05;100986.72;;;17.47;66.32
60465;BME280;46314;52.392;9.758;2022-10-30T04:12:31;100975.28;;;17.31;67.45
60465;BME280;46314;52.392;9.758;2022-10-30T04:14:58;100989.59;;;17.81;65.97
60465;BME280;46314;52.392;9.758;2022-10-30T04:17:24;100984.72;;;17.69;65.80
60465;BME280;46314;52.392;9.758;2022-10-30T04:19:50;100981.81;;;17.35;67.18
60465;BME280;46314;52.392;9.758;2022-10-30T04:22:18;100990.75;;;17.58;65.84
60465;BME280;46314;52.392;9.758;2022-10-30T04:24:45;100983.31;;;17.63;65.82
60465;BME280;46314;52.392;9.758;2022-10-30T04:27:11;100978.03;;;17.82;65.65
60465;BME280;46314;52.392;9.758;2022-10-30T04:29:37;100977.31;;;17.85;65.28
60465;BME280;46314;52.392;9.758;2022-10-30T04:32:04;100976.34;;;17.90;65.38
60465;BME280;46314;52.392;9.758;2022-10-30T04:34:36;100985.75;;;17.85;65.17
60465;BME280;46314;52.392;9.758;2022-10-30T04:37:02;100981.59;;;17.70;65.31
60465;BME280;46314;52.392;9.758;2022-10-30T04:39:30;100975.44;;;17.98;64.30
60465;BME280;46314;52.392;9.758;2022-10-30T04:41:56;100973.88;;;17.88;64.73
60465;BME280;46314;52.392;9.758;2022-10-30T04:44:23;100974.38;;;17.82;65.28
60465;BME280;46314;52.392;9.758;2022-10-30T04:46:49;100975.41;;;17.35;66.56
60465;BME280;46314;52.392;9.758;2022-10-30T04:49:16;100961.53;;;17.38;66.30
60465;BME280;46314;52.392;9.758;2022-10-30T04:51:42;100975.63;;;17.72;65.70
60465;BME280;46314;52.392;9.758;2022-10-30T04:54:09;100969.81;;;17.77;65.40
60465;BME280;46314;52.392;9.758;2022-10-30T04:56:37;100973.78;;;17.97;64.17
60465;BME280;46314;52.392;9.758;2022-10-30T04:59:03;100979.03;;;17.77;64.21
60465;BME280;46314;52.392;9.758;2022-10-30T05:01:29;100969.81;;;17.56;66.22
60465;BME280;46314;52.392;9.758;2022-10-30T05:03:56;100968.69;;;17.27;67.14
60465;BME280;46314;52.392;9.758;2022-10-30T05:06:25;100968.09;;;17.64;65.74
60465;BME280;46314;52.392;9.758;2022-10-30T05:08:52;100962.28;;;17.48;66.81
60465;BME280;46314;52.392;9.758;2022-10-30T05:11:18;100960.28;;;17.48;66.50
60465;BME280;46314;52.392;9.758;2022-10-30T05:13:47;100967.28;;;17.42;66.48
60465;BME280;46314;52.392;9.758;2022-10-30T05:16:13;100957.47;;;17.27;67.69
60465;BME280;46314;52.392;9.758;2022-10-30T05:18:40;100959.59;;;17.30;67.18
60465;BME280;46314;52.392;9.758;2022-10-30T05:21:06;100965.53;;;17.29;66.58
60465;BME280;46314;52.392;9.758;2022-10-30T05:23:33;100956.53;;;17.44;66.07
60465;BME280;46314;52.392;9.758;2022-10-30T05:25:59;100961.06;;;17.36;67.21
60465;BME280;46314;52.392;9.758;2022-10-30T05:28:25;100963.84;;;17.36;66.80
60465;BME280;46314;52.392;9.758;2022-10-30T05:30:53;100962.19;;;17.35;67.43
60465;BME280;46314;52.392;9.758;2022-10-30T05:33:20;100964.75;;;17.49;66.11
60465;BME280;46314;52.392;9.758;2022-10-30T05:35:48;100968.09;;;17.13;67.44
60465;BME280;46314;52.392;9.758;2022-10-30T05:38:15;100972.91;;;17.12;67.42
60465;BME280;46314;52.392;9.758;2022-10-30T05:40:45;100973.50;;;17.48;65.77
60465;BME280;46314;52.392;9.758;2022-10-30T05:43:11;100975.69;;;17.63;65.46
60465;BME280;46314;52.392;9.758;2022-10-30T05:45:38;100973.22;;;17.62;65.22
60465;BME280;46314;52.392;9.758;2022-10-30T05:48:06;100980.91;;;17.52;65.95
60465;BME280;46314;52.392;9.758;2022-10-30T05:50:33;100980.84;;;17.10;67.32
60465;BME280;46314;52.392;9.758;2022-10-30T05:53:01;100979.59;;;17.50;65.73
60465;BME280;46314;52.392;9.758;2022-10-30T05:55:28;100984.22;;;17.25;66.38
60465;BME280;46314;52.392;9.758;2022-10-30T05:57:55;100987.72;;;17.64;65.45
60465;BME280;46314;52.392;9.758;2022-10-30T06:00:22;100982.22;;;17.25;66.50
60465;BME280;46314;52.392;9.758;2022-10-30T06:02:49;100991.69;;;17.41;66.60
60465;BME280;46314;52.392;9.758;2022-10-30T06:05:17;100990.31;;;17.48;66.25
60465;BME280;46314;52.392;9.758;2022-10-30T06:07:43;100980.59;;;16.94;67.77
60465;BME280;46314;52.392;9.758;2022-10-30T06:10:10;100985.66;;;17.52;65.95
60465;BME280;46314;52.392;9.758;2022-10-30T06:12:36;100981.75;;;17.23;66.98
60465;BME280;46314;52.392;9.758;2022-10-30T06:15:04;100980.69;;;17.57;66.28
60465;BME280;46314;52.392;9.758;2022-10-30T06:17:31;100980.50;;;17.63;65.63
60465;BME280;46314;52.392;9.758;2022-10-30T06:19:57;100985.69;;;17.94;64.75
60465;BME280;46314;52.392;9.758;2022-10-30T06:22:25;100989.25;;;17.82;65.13
60465;BME280;46314;52.392;9.758;2022-10-30T06:24:51;100988.41;;;17.60;64.75
60465;BME280;46314;52.392;9.758;2022-10-30T06:27:18;100995.53;;;17.58;64.92
60465;BME280;46314;52.392;9.758;2022-10-30T06:29:44;101005.19;;;17.69;65.49
60465;BME280;46314;52.392;9.758;2022-10-30T06:32:11;101004.88;;;17.92;65.05
60465;BME280;46314;52.392;9.758;2022-10-30T06:34:37;101015.53;;;17.77;65.10
60465;BME280;46314;52.392;9.758;2022-10-30T06:37:04;101017.41;;;17.94;63.91
60465;BME280;46314;52.392;9.758;2022-10-30T06:39:32;101018.22;;;18.16;64.17
60465;BME280;46314;52.392;9.758;2022-10-30T06:41:58;101017.72;;;17.72;64.59
60465;BME280;46314;52.392;9.758;2022-10-30T06:44:24;101023.84;;;17.95;64.77
60465;BME280;46314;52.392;9.758;2022-10-30T06:46:51;101019.63;;;18.22;63.33
60465;BME280;46314;52.392;9.758;2022-10-30T06:49:18;101024.06;;;17.81;64.55
60465;BME280;46314;52.392;9.758;2022-10-30T06:51:44;101025.25;;;17.80;64.57
60465;BME280;46314;52.392;9.758;2022-10-30T06:54:11;101028.56;;;18.03;63.76
60465;BME280;46314;52.392;9.758;2022-10-30T06:56:39;101020.47;;;18.02;63.63
60465;BME280;46314;52.392;9.758;2022-10-30T06:59:06;101028.16;;;17.92;63.97
60465;BME280;46314;52.392;9.758;2022-10-30T07:01:32;101032.94;;;17.92;63.96
60465;BME280;46314;52.392;9.758;2022-10-30T07:03:59;101036.63;;;17.84;64.62
60465;BME280;46314;52.392;9.758;2022-10-30T07:06:25;101032.75;;;17.67;64.76
60465;BME280;46314;52.392;9.758;2022-10-30T07:08:52;101039.06;;;17.85;64.72
60465;BME280;46314;52.392;9.758;2022-10-30T07:11:18;101039.63;;;17.28;65.83
60465;BME280;46314;52.392;9.758;2022-10-30T07:13:46;101037.06;;;17.94;65.47
60465;BME280;46314;52.392;9.758;2022-10-30T07:16:13;101046.16;;;17.91;65.23
60465;BME280;46314;52.392;9.758;2022-10-30T07:18:39;101037.13;;;17.86;65.13
60465;BME280;46314;52.392;9.758;2022-10-30T07:21:06;101043.38;;;17.62;66.37
60465;BME280;46314;52.392;9.758;2022-10-30T07:23:32;101040.91;;;17.60;66.20
60465;BME280;46314;52.392;9.758;2022-10-30T07:25:58;101042.56;;;17.61;65.50
60465;BME280;46314;52.392;9.758;2022-10-30T07:28:29;101053.06;;;17.64;65.67
60465;BME280;46314;52.392;9.758;2022-10-30T07:30:58;101049.44;;;17.93;64.34
60465;BME280;46314;52.392;9.758;2022-10-30T07:33:24;101042.88;;;17.59;66.16
60465;BME280;46314;52.392;9.758;2022-10-30T07:35:51;101044.06;;;17.79;65.42
60465;BME280;46314;52.392;9.758;2022-10-30T07:38:17;101051.53;;;17.75;65.57
60465;BME280;46314;52.392;9.758;2022-10-30T07:40:50;101056.66;;;17.73;65.38
60465;BME280;46314;52.392;9.758;2022-10-30T07:43:17;101055.25;;;17.88;65.19
60465;BME280;46314;52.392;9.758;2022-10-30T07:45:44;101063.00;;;17.91;64.34
60465;BME280;46314;52.392;9.758;2022-10-30T07:48:12;101064.84;;;17.87;64.81
60465;BME280;46314;52.392;9.758;2022-10-30T07:50:38;101058.22;;;17.83;65.16
60465;BME280;46314;52.392;9.758;2022-10-30T07:53:04;101046.50;;;17.90;65.24
60465;BME280;46314;52.392;9.758;2022-10-30T07:55:31;101052.34;;;17.76;65.36
60465;BME280;46314;52.392;9.758;2022-10-30T07:57:57;101056.63;;;18.03;65.40
60465;BME280;46314;52.392;9.758;2022-10-30T08:00:24;101055.03;;;17.93;65.21
60465;BME280;46314;52.392;9.758;2022-10-30T08:02:54;101057.13;;;18.05;65.22
60465;BME280;46314;52.392;9.758;2022-10-30T08:05:24;101056.91;;;17.89;65.35
60465;BME280;46314;52.392;9.758;2022-10-30T08:07:55;101068.22;;;18.02;65.09
60465;BME280;46314;52.392;9.758;2022-10-30T08:10:23;101063.66;;;17.88;65.53
60465;BME280;46314;52.392;9.758;2022-10-30T08:12:49;101070.53;;;18.21;64.89
60465;BME280;46314;52.392;9.758;2022-10-30T08:15:16;101070.53;;;18.00;65.69
60465;BME280;46314;52.392;9.758;2022-10-30T08:17:44;101061.13;;;17.95;65.67
60465;BME280;46314;52.392;9.758;2022-10-30T08:20:12;101064.16;;;18.11;65.14
60465;BME280;46314;52.392;9.758;2022-10-30T08:22:45;101056.78;;;18.07;65.16
60465;BME280;46314;52.392;9.758;2022-10-30T08:25:13;101064.47;;;18.10;64.72
60465;BME280;46314;52.392;9.758;2022-10-30T08:27:49;101059.75;;;17.81;65.87
60465;BME280;46314;52.392;9.758;2022-10-30T08:30:15;101054.97;;;18.02;65.15
60465;BME280;46314;52.392;9.758;2022-10-30T08:32:42;101064.78;;;18.17;64.76
60465;BME280;46314;52.392;9.758;2022-10-30T08:35:09;101067.81;;;18.12;64.78
60465;BME280;46314;52.392;9.758;2022-10-30T08:37:35;101067.59;;;18.17;63.91
60465;BME280;46314;52.392;9.758;2022-10-30T08:40:04;101062.38;;;18.28;64.28
60465;BME280;46314;52.392;9.758;2022-10-30T08:42:30;101065.97;;;18.49;63.40
60465;BME280;46314;52.392;9.758;2022-10-30T08:44:57;101069.31;;;18.43;63.25
60465;BME280;46314;52.392;9.758;2022-10-30T08:47:23;101073.75;;;18.31;64.04
60465;BME280;46314;52.392;9.758;2022-10-30T08:49:50;101064.19;;;18.45;63.08
60465;BME280;46314;52.392;9.758;2022-10-30T08:52:16;101063.31;;;18.65;62.85
60465;BME280;46314;52.392;9.758;2022-10-30T08:54:43;101070.34;;;18.59;63.21
60465;BME280;46314;52.392;9.758;2022-10-30T08:57:11;101076.09;;;19.08;61.44
60465;BME280;46314;52.392;9.758;2022-10-30T08:59:37;101078.94;;;19.21;61.38
60465;BME280;46314;52.392;9.758;2022-10-30T09:02:03;101070.84;;;18.73;62.07
60465;BME280;46314;52.392;9.758;2022-10-30T09:04:30;101078.66;;;19.14;60.90
60465;BME280;46314;52.392;9.758;2022-10-30T09:06:59;101082.03;;;18.82;61.82
60465;BME280;46314;52.392;9.758;2022-10-30T09:09:25;101083.78;;;18.87;61.33
60465;BME280;46314;52.392;9.758;2022-10-30T09:11:52;101084.66;;;19.12;61.10
60465;BME280;46314;52.392;9.758;2022-10-30T09:14:20;101088.06;;;19.42;60.23
60465;BME280;46314;52.392;9.758;2022-10-30T09:16:46;101090.00;;;19.05;61.01
60465;BME280;46314;52.392;9.758;2022-10-30T09:19:13;101077.25;;;19.07;60.60
60465;BME280;46314;52.392;9.758;2022-10-30T09:21:44;101072.53;;;18.87;61.44
60465;BME280;46314;52.392;9.758;2022-10-30T09:24:10;101086.88;;;19.31;59.51
60465;BME280;46314;52.392;9.758;2022-10-30T09:26:37;101084.81;;;19.40;59.31
60465;BME280;46314;52.392;9.758;2022-10-30T09:29:03;101086.66;;;19.24;59.90
60465;BME280;46314;52.392;9.758;2022-10-30T09:31:31;101080.69;;;19.50;59.42
60465;BME280;46314;52.392;9.758;2022-10-30T09:33:57;101080.22;;;18.78;61.36
60465;BME280;46314;52.392;9.758;2022-10-30T09:36:24;101083.03;;;19.48;59.87
60465;BME280;46314;52.392;9.758;2022-10-30T09:38:50;101083.38;;;19.59;58.82
60465;BME280;46314;52.392;9.758;2022-10-30T09:41:32;101092.16;;;19.57;58.37
60465;BME280;46314;52.392;9.758;2022-10-30T09:44:13;101084.81;;;19.77;58.08
60465;BME280;46314;52.392;9.758;2022-10-30T09:46:53;101087.59;;;19.90;57.88
60465;BME280;46314;52.392;9.758;2022-10-30T09:49:43;101094.50;;;19.67;56.97
60465;BME280;46314;52.392;9.758;2022-10-30T09:52:21;101089.25;;;19.78;57.55
60465;BME280;46314;52.392;9.758;2022-10-30T09:57:56;101097.09;;;19.85;57.75
60465;BME280;46314;52.392;9.758;2022-10-30T10:00:31;101097.91;;;19.98;57.81
60465;BME280;46314;52.392;9.758;2022-10-30T10:03:12;101088.41;;;20.02;57.12
60465;BME280;46314;52.392;9.758;2022-10-30T10:05:45;101091.09;;;20.39;55.97
60465;BME280;46314;52.392;9.758;2022-10-30T10:08:16;101092.16;;;20.35;56.14
60465;BME280;46314;52.392;9.758;2022-10-30T10:10:45;101093.34;;;20.34;55.37
60465;BME280;46314;52.392;9.758;2022-10-30T10:13:23;101092.84;;;20.44;55.58
60465;BME280;46314;52.392;9.758;2022-10-30T10:15:56;101078.41;;;20.74;54.37
60465;BME280;46314;52.392;9.758;2022-10-30T10:18:30;101098.38;;;20.40;55.44
60465;BME280;46314;52.392;9.758;2022-10-30T10:21:09;101090.22;;;20.64;54.93
60465;BME280;46314;52.392;9.758;2022-10-30T10:23:45;101084.91;;;20.34;56.28
60465;BME280;46314;52.392;9.758;2022-10-30T10:26:22;101088.75;;;20.70;55.11
60465;BME280;46314;52.392;9.758;2022-10-30T10:29:00;101084.97;;;20.09;56.27
60465;BME280;46314;52.392;9.758;2022-10-30T10:31:37;101079.06;;;20.55;56.06
60465;BME280;46314;52.392;9.758;2022-10-30T10:34:20;101079.84;;;20.68;54.46
60465;BME280;46314;52.392;9.758;2022-10-30T10:36:56;101077.28;;;20.63;55.09
60465;BME280;46314;52.392;9.758;2022-10-30T10:39:36;101071.88;;;20.57;55.86
60465;BME280;46314;52.392;9.758;2022-10-30T10:42:15;101069.97;;;20.90;54.38
60465;BME280;46314;52.392;9.758;2022-10-30T10:44:54;101068.59;;;20.99;53.32
60465;BME280;46314;52.392;9.758;2022-10-30T10:47:52;101070.84;;;20.78;53.77
60465;BME280;46314;52.392;9.758;2022-10-30T10:50:27;101067.50;;;20.88;53.67
60465;BME280;46314;52.392;9.758;2022-10-30T10:53:00;101065.78;;;21.15;52.86
60465;BME280;46314;52.392;9.758;2022-10-30T10:55:32;101052.50;;;20.56;54.19
60465;BME280;46314;52.392;9.758;2022-10-30T10:58:07;101056.94;;;21.33;52.26
60465;BME280;46314;52.392;9.758;2022-10-30T11:00:36;101048.06;;;20.55;54.10
60465;BME280;46314;52.392;9.758;2022-10-30T11:03:08;101050.84;;;20.67;54.68
60465;BME280;46314;52.392;9.758;2022-10-30T11:05:40;101054.13;;;20.69;55.11
60465;BME280;46314;52.392;9.758;2022-10-30T11:08:10;101047.41;;;21.22;53.23
60465;BME280;46314;52.392;9.758;2022-10-30T11:10:40;101042.94;;;21.05;52.95
60465;BME280;46314;52.392;9.758;2022-10-30T11:13:10;101046.56;;;21.21;52.61
60465;BME280;46314;52.392;9.758;2022-10-30T11:15:45;101036.41;;;21.01;53.17
60465;BME280;46314;52.392;9.758;2022-10-30T11:18:12;101040.28;;;21.44;52.17
60465;BME280;46314;52.392;9.758;2022-10-30T11:20:43;101041.50;;;21.27;52.16
60465;BME280;46314;52.392;9.758;2022-10-30T11:23:32;101038.03;;;21.02;52.50
60465;BME280;46314;52.392;9.758;2022-10-30T11:26:00;101041.41;;;21.23;52.61
60465;BME280;46314;52.392;9.758;2022-10-30T11:28:34;101037.09;;;20.66;54.44
60465;BME280;46314;52.392;9.758;2022-10-30T11:31:19;101027.56;;;20.70;54.63
60465;BME280;46314;52.392;9.758;2022-10-30T11:33:47;101032.88;;;21.20;52.11
60465;BME280;46314;52.392;9.758;2022-10-30T11:36:16;101033.75;;;21.24;52.47
60465;BME280;46314;52.392;9.758;2022-10-30T11:38:43;101031.06;;;21.63;51.56
60465;BME280;46314;52.392;9.758;2022-10-30T11:41:10;101030.84;;;21.52;51.37
60465;BME280;46314;52.392;9.758;2022-10-30T11:43:39;101024.81;;;21.89;50.56
60465;BME280;46314;52.392;9.758;2022-10-30T11:46:08;101024.94;;;21.77;50.00
60465;BME280;46314;52.392;9.758;2022-10-30T11:48:38;101016.75;;;21.20;53.49
60465;BME280;46314;52.392;9.758;2022-10-30T11:51:09;101015.53;;;21.53;51.85
60465;BME280;46314;52.392;9.758;2022-10-30T11:53:40;101014.88;;;21.44;51.74
60465;BME280;46314;52.392;9.758;2022-10-30T11:56:13;101016.38;;;21.73;51.68
60465;BME280;46314;52.392;9.758;2022-10-30T11:58:43;101010.00;;;21.41;51.86
60465;BME280;46314;52.392;9.758;2022-10-30T12:01:25;101004.56;;;21.67;51.26
60465;BME280;46314;52.392;9.758;2022-10-30T12:03:52;101004.09;;;22.01;50.84
60465;BME280;46314;52.392;9.758;2022-10-30T12:06:26;101007.81;;;21.34;52.02
60465;BME280;46314;52.392;9.758;2022-10-30T12:09:02;101009.63;;;21.10;53.55
60465;BME280;46314;52.392;9.758;2022-10-30T12:11:30;101003.13;;;21.58;52.11
60465;BME280;46314;52.392;9.758;2022-10-30T12:13:58;101002.69;;;21.55;51.49
60465;BME280;46314;52.392;9.758;2022-10-30T12:16:25;101001.03;;;21.90;50.70
60465;BME280;46314;52.392;9.758;2022-10-30T12:19:00;100986.72;;;21.83;50.50
60465;BME280;46314;52.392;9.758;2022-10-30T12:21:29;100990.03;;;22.04;50.41
60465;BME280;46314;52.392;9.758;2022-10-30T12:24:00;100984.81;;;21.67;51.55
60465;BME280;46314;52.392;9.758;2022-10-30T12:26:28;100986.22;;;21.42;53.29
60465;BME280;46314;52.392;9.758;2022-10-30T12:28:58;100977.59;;;21.89;51.91
60465;BME280;46314;52.392;9.758;2022-10-30T12:31:33;100980.34;;;21.86;51.24
60465;BME280;46314;52.392;9.758;2022-10-30T12:34:08;100973.22;;;21.92;51.72
60465;BME280;46314;52.392;9.758;2022-10-30T12:36:46;100968.16;;;21.82;52.35
60465;BME280;46314;52.392;9.758;2022-10-30T12:39:20;100964.91;;;21.99;51.28
60465;BME280;46314;52.392;9.758;2022-10-30T12:41:55;100964.16;;;22.02;51.12
60465;BME280;46314;52.392;9.758;2022-10-30T12:44:26;100970.63;;;22.03;51.05
60465;BME280;46314;52.392;9.758;2022-10-30T12:46:55;100968.25;;;21.85;50.89
60465;BME280;46314;52.392;9.758;2022-10-30T12:49:30;100967.28;;;21.97;50.51
60465;BME280;46314;52.392;9.758;2022-10-30T12:52:03;100969.50;;;21.88;50.67
60465;BME280;46314;52.392;9.758;2022-10-30T12:54:38;100967.44;;;22.04;50.70
60465;BME280;46314;52.392;9.758;2022-10-30T12:57:11;100966.03;;;22.57;49.16
60465;BME280;46314;52.392;9.758;2022-10-30T12:59:45;100968.75;;;22.10;49.85
60465;BME280;46314;52.392;9.758;2022-10-30T13:02:24;100968.81;;;22.76;47.88
60465;BME280;46314;52.392;9.758;2022-10-30T13:04:57;100967.63;;;22.35;49.27